createdAt,value
2023-03-22T00:00:12.730Z,97921.38
2023-03-22T00:03:16.082Z,97896.31
2023-03-22T00:06:21.183Z,97921.50
2023-03-22T00:09:24.305Z,97907.69
2023-03-22T00:12:27.496Z,97907.13
2023-03-22T00:15:30.659Z,97905.19
2023-03-22T00:18:33.984Z,97909.59
2023-03-22T00:21:38.491Z,97907.66
2023-03-22T00:24:41.558Z,97903.31
2023-03-22T00:27:45.036Z,97906.22
2023-03-22T00:30:55.903Z,97908.66
2023-03-22T00:33:58.925Z,97903.19
2023-03-22T00:37:03.335Z,97896.13
2023-03-22T00:40:08.858Z,97899.91
2023-03-22T00:43:12.074Z,97895.22
2023-03-22T00:46:16.538Z,97897.09
2023-03-22T00:49:19.894Z,97898.19
2023-03-22T00:52:24.694Z,97903.81
2023-03-22T00:55:28.008Z,97896.06
2023-03-22T00:58:31.215Z,97897.78
2023-03-22T01:01:34.701Z,97902.94
2023-03-22T01:04:40.100Z,97894.38
2023-03-22T01:07:44.899Z,97895.91
2023-03-22T01:10:49.394Z,97895.22
2023-03-22T01:13:52.978Z,97889.50
2023-03-22T01:16:57.499Z,97883.94
2023-03-22T01:20:01.002Z,97886.78
2023-03-22T01:23:06.479Z,97881.97
2023-03-22T01:26:09.838Z,97880.25
2023-03-22T01:29:13.340Z,97878.97
2023-03-22T01:32:16.627Z,97882.97
2023-03-22T01:35:20.139Z,97884.06
2023-03-22T01:38:24.729Z,97874.34
2023-03-22T01:41:34.921Z,97875.47
2023-03-22T01:44:46.909Z,97872.44
2023-03-22T01:47:55.574Z,97877.00
2023-03-22T01:51:07.148Z,97869.00
2023-03-22T01:54:22.219Z,97872.13
2023-03-22T01:57:27.516Z,97865.31
2023-03-22T02:00:32.644Z,97864.44
2023-03-22T02:04:09.124Z,97868.13
2023-03-22T02:07:25.863Z,97866.91
2023-03-22T02:10:31.580Z,97859.50
2023-03-22T02:13:47.955Z,97856.00
2023-03-22T02:17:27.602Z,97858.63
2023-03-22T02:21:04.521Z,97853.59
2023-03-22T02:24:39.370Z,97859.50
2023-03-22T02:28:10.996Z,97860.56
2023-03-22T02:31:31.456Z,97858.44
2023-03-22T02:34:52.225Z,97854.28
2023-03-22T02:38:33.030Z,97859.72
2023-03-22T02:41:46.591Z,97852.41
2023-03-22T02:45:00.032Z,97842.25
2023-03-22T02:48:09.877Z,97857.38
2023-03-22T02:51:18.945Z,97849.34
2023-03-22T02:54:28.719Z,97844.13
2023-03-22T02:57:37.957Z,97845.91
2023-03-22T03:00:42.691Z,97844.47
2023-03-22T03:03:50.331Z,97838.75
2023-03-22T03:06:56.654Z,97768.06
2023-03-22T03:09:59.855Z,97840.03
2023-03-22T03:13:04.671Z,97843.50
2023-03-22T03:16:09.101Z,97832.84
2023-03-22T03:19:19.809Z,97842.75
2023-03-22T03:22:38.211Z,97844.53
2023-03-22T03:25:48.849Z,97842.53
2023-03-22T03:28:58.088Z,97840.41
2023-03-22T03:32:08.196Z,97842.09
2023-03-22T03:35:23.007Z,97841.09
2023-03-22T03:38:29.528Z,97842.53
2023-03-22T03:41:33.507Z,97847.28
2023-03-22T03:44:39.905Z,97843.94
2023-03-22T03:47:44.357Z,97850.31
2023-03-22T03:50:50.376Z,97847.91
2023-03-22T03:53:53.872Z,97842.25
2023-03-22T03:56:58.500Z,97837.69
2023-03-22T04:00:04.012Z,97842.00
2023-03-22T04:03:25.747Z,97842.00
2023-03-22T04:06:47.827Z,97844.59
2023-03-22T04:09:56.060Z,97775.53
2023-03-22T04:13:03.464Z,97843.97
2023-03-22T04:16:09.970Z,97847.00
2023-03-22T04:19:14.448Z,97858.44
2023-03-22T04:22:18.486Z,97861.22
2023-03-22T04:25:22.793Z,97860.53
2023-03-22T04:28:34.805Z,97856.75
2023-03-22T04:34:14.054Z,97856.31
2023-03-22T04:37:27.115Z,97860.59
2023-03-22T04:40:47.620Z,97857.69
2023-03-22T04:43:57.551Z,97853.28
2023-03-22T04:47:00.893Z,97853.97
2023-03-22T04:50:06.555Z,97853.28
2023-03-22T04:53:14.242Z,97855.44
2023-03-22T04:56:20.255Z,97853.00
2023-03-22T04:59:26.572Z,97860.44
2023-03-22T05:02:29.902Z,97855.88
2023-03-22T05:05:34.665Z,97859.09
2023-03-22T05:08:39.386Z,97862.22
2023-03-22T05:11:43.127Z,97869.63
2023-03-22T05:15:06.601Z,97858.25
2023-03-22T05:18:14.349Z,97859.44
2023-03-22T05:21:22.553Z,97846.38
2023-03-22T05:24:31.105Z,97847.13
2023-03-22T05:27:35.062Z,97845.81
2023-03-22T05:31:11.800Z,97852.03
2023-03-22T05:34:21.908Z,97852.00
2023-03-22T05:37:27.052Z,97843.72
2023-03-22T05:40:33.097Z,97846.63
2023-03-22T05:43:36.509Z,97851.78
2023-03-22T05:46:40.204Z,97844.47
2023-03-22T05:50:02.406Z,97845.00
2023-03-22T05:53:08.423Z,97840.25
2023-03-22T05:56:30.145Z,97841.63
2023-03-22T05:59:41.144Z,97829.97
2023-03-22T06:02:49.678Z,97830.97
2023-03-22T06:05:54.681Z,97839.38
2023-03-22T06:09:16.841Z,97837.78
2023-03-22T06:12:24.739Z,97832.94
2023-03-22T06:15:37.684Z,97828.78
2023-03-22T06:18:43.052Z,97827.19
2023-03-22T06:21:49.310Z,97828.22
2023-03-22T06:24:55.320Z,97828.47
2023-03-22T06:28:08.842Z,97836.81
2023-03-22T06:31:14.053Z,97827.69
2023-03-22T06:34:37.554Z,97826.06
2023-03-22T06:37:44.138Z,97822.03
2023-03-22T06:40:48.897Z,97817.97
2023-03-22T06:43:52.146Z,97801.91
2023-03-22T06:47:16.511Z,97796.19
2023-03-22T06:50:48.149Z,97784.50
2023-03-22T06:53:55.821Z,97781.66
2023-03-22T06:57:00.697Z,97779.88
2023-03-22T07:00:05.299Z,97787.63
2023-03-22T07:03:08.638Z,97785.31
2023-03-22T07:06:18.229Z,97776.41
2023-03-22T07:09:26.790Z,97780.75
2023-03-22T07:12:35.028Z,97772.34
2023-03-22T07:15:44.308Z,97772.91
2023-03-22T07:19:09.930Z,97783.50
2023-03-22T07:22:13.769Z,97776.72
2023-03-22T07:25:18.728Z,97784.06
2023-03-22T07:28:25.971Z,97763.38
2023-03-22T07:31:31.475Z,97777.34
2023-03-22T07:34:43.349Z,97777.19
2023-03-22T07:37:53.065Z,97779.22
2023-03-22T07:41:02.937Z,97781.31
2023-03-22T07:44:24.207Z,97768.50
2023-03-22T07:47:48.512Z,97762.34
2023-03-22T07:50:57.168Z,97766.31
2023-03-22T07:54:02.358Z,97765.00
2023-03-22T07:57:06.887Z,97752.91
2023-03-22T08:00:17.178Z,97753.94
2023-03-22T08:03:26.236Z,97762.16
2023-03-22T08:06:36.916Z,97748.06
2023-03-22T08:09:40.847Z,97750.75
2023-03-22T08:12:44.293Z,97756.41
2023-03-22T08:15:58.768Z,97750.94
2023-03-22T08:19:02.820Z,97747.00
2023-03-22T08:22:08.052Z,97749.22
2023-03-22T08:25:33.459Z,97754.34
2023-03-22T08:28:43.917Z,97750.50
2023-03-22T08:31:48.578Z,97748.28
2023-03-22T08:34:52.637Z,97755.97
2023-03-22T08:37:56.314Z,97754.19
2023-03-22T08:41:04.291Z,97752.84
2023-03-22T08:44:07.506Z,97751.69
2023-03-22T08:47:13.389Z,97720.09
2023-03-22T08:50:18.730Z,97748.88
2023-03-22T08:53:28.658Z,97742.38
2023-03-22T08:56:48.180Z,97743.31
2023-03-22T09:00:12.014Z,97742.03
2023-03-22T09:03:25.962Z,97753.69
2023-03-22T09:06:29.769Z,97736.22
2023-03-22T09:09:32.994Z,97744.59
2023-03-22T09:12:36.295Z,97740.09
2023-03-22T09:15:39.916Z,97744.16
2023-03-22T09:18:59.535Z,97736.88
2023-03-22T09:22:02.903Z,97728.75
2023-03-22T09:25:15.475Z,97733.44
2023-03-22T09:28:21.875Z,97730.19
2023-03-22T09:31:25.240Z,97732.19
2023-03-22T09:34:42.457Z,97736.88
2023-03-22T09:37:45.674Z,97722.78
2023-03-22T09:41:00.353Z,97732.41
2023-03-22T09:44:10.284Z,97732.50
2023-03-22T09:47:17.975Z,97726.78
2023-03-22T09:50:24.440Z,97726.44
2023-03-22T09:53:30.735Z,97714.31
2023-03-22T09:56:34.191Z,97719.56
2023-03-22T09:59:45.436Z,97715.25
2023-03-22T10:02:56.131Z,97714.97
2023-03-22T10:06:05.156Z,97714.22
2023-03-22T10:09:13.914Z,97712.16
2023-03-22T10:12:22.037Z,97698.94
2023-03-22T10:15:29.944Z,97704.09
2023-03-22T10:18:36.851Z,97701.91
2023-03-22T10:21:42.271Z,97694.09
2023-03-22T10:24:49.229Z,97690.88
2023-03-22T10:27:53.399Z,97679.72
2023-03-22T10:34:21.797Z,97680.88
2023-03-22T10:37:32.025Z,97681.09
2023-03-22T10:40:37.577Z,97674.69
2023-03-22T10:43:42.976Z,97673.94
2023-03-22T10:46:47.524Z,97679.19
2023-03-22T10:49:57.097Z,97661.69
2023-03-22T10:53:05.621Z,97658.81
2023-03-22T10:56:13.625Z,97648.22
2023-03-22T10:59:44.799Z,97653.16
2023-03-22T11:02:54.059Z,97648.28
2023-03-22T11:06:03.663Z,97651.16
2023-03-22T11:09:13.733Z,97636.34
2023-03-22T11:12:17.205Z,97647.75
2023-03-22T11:15:24.775Z,97643.94
2023-03-22T11:18:32.491Z,97641.06
2023-03-22T11:21:37.117Z,97644.03
2023-03-22T11:24:40.593Z,97646.88
2023-03-22T11:27:53.024Z,97649.50
2023-03-22T11:31:02.434Z,97640.84
2023-03-22T11:34:17.822Z,97637.88
2023-03-22T11:37:23.217Z,97642.34
2023-03-22T11:40:29.335Z,97633.06
2023-03-22T11:43:38.103Z,97627.88
2023-03-22T11:46:50.391Z,97624.75
2023-03-22T11:49:56.375Z,97621.94
2023-03-22T11:53:03.537Z,97611.19
2023-03-22T11:56:08.568Z,97626.66
2023-03-22T11:59:16.559Z,97611.31
2023-03-22T12:02:24.719Z,97612.16
2023-03-22T12:05:31.299Z,97607.41
2023-03-22T12:08:43.981Z,97609.31
2023-03-22T12:11:50.672Z,97593.63
2023-03-22T12:14:58.444Z,97601.00
2023-03-22T12:18:07.990Z,97602.06
2023-03-22T12:21:12.014Z,97602.56
2023-03-22T12:24:26.377Z,97593.34
2023-03-22T12:30:43.897Z,97579.13
2023-03-22T12:33:50.337Z,97583.97
2023-03-22T12:36:57.027Z,97590.06
2023-03-22T12:40:06.753Z,97588.44
2023-03-22T12:43:14.701Z,97579.75
2023-03-22T12:46:23.750Z,97574.47
2023-03-22T12:49:33.127Z,97567.66
2023-03-22T12:52:45.861Z,97559.63
2023-03-22T12:55:52.192Z,97562.59
2023-03-22T12:59:00.245Z,97569.81
2023-03-22T13:02:15.431Z,97562.94
2023-03-22T13:05:19.458Z,97565.69
2023-03-22T13:08:23.660Z,97559.16
2023-03-22T13:11:28.454Z,97555.06
2023-03-22T13:14:57.685Z,97552.91
2023-03-22T13:18:04.550Z,97523.09
2023-03-22T13:21:13.102Z,97538.44
2023-03-22T13:24:24.018Z,97546.84
2023-03-22T13:27:37.859Z,97546.84
2023-03-22T13:30:50.364Z,97546.72
2023-03-22T13:33:54.818Z,97536.63
2023-03-22T13:36:58.896Z,97538.19
2023-03-22T13:40:04.007Z,97526.28
2023-03-22T13:43:22.043Z,97495.72
2023-03-22T13:46:46.433Z,97518.94
2023-03-22T13:49:54.550Z,97512.75
2023-03-22T13:53:03.803Z,97510.94
2023-03-22T13:56:08.350Z,97515.47
2023-03-22T13:59:15.328Z,97516.63
2023-03-22T14:02:23.116Z,97524.66
2023-03-22T14:05:30.235Z,97512.94
2023-03-22T14:08:35.628Z,97507.13
2023-03-22T14:11:46.240Z,97508.06
2023-03-22T14:14:56.211Z,97508.25
2023-03-22T14:18:03.434Z,97501.72
2023-03-22T14:21:10.383Z,97481.94
